Time;durP1;ratioP1;P1;durP2;ratioP2;P2;SDS_P1;SDS_P2;PMS_P1;PMS_P2;Temp;Humidity;BMP_temperature;BMP_pressure;BME280_temperature;BME280_humidity;BME280_pressure;Samples;Min_cycle;Max_cycle;Signal;HPM_P1;HPM_P2
2022/08/28 00:00:27;;;;;;;5.97;2.70;;;;;;;;;;5091697;28;20261;-78
2022/08/28 00:02:53;;;;;;;3.60;2.70;;;;;;;;;;5091618;28;20251;-78
2022/08/28 00:05:20;;;;;;;4.45;2.70;;;;;;;;;;5076572;28;20251;-78
2022/08/28 00:07:46;;;;;;;5.43;3.10;;;;;;;;;;5071021;28;20226;-78
2022/08/28 00:10:15;;;;;;;3.10;2.60;;;;;;;;;;5072678;28;20275;-78
2022/08/28 00:12:42;;;;;;;4.43;2.80;;;;;;;;;;5071616;28;20184;-78
2022/08/28 00:15:11;;;;;;;2.83;2.60;;;;;;;;;;5071127;28;20624;-78
2022/08/28 00:17:37;;;;;;;4.53;3.00;;;;;;;;;;5054400;28;20185;-78
2022/08/28 00:20:04;;;;;;;5.77;2.80;;;;;;;;;;5070910;28;20224;-78
2022/08/28 00:22:30;;;;;;;3.80;2.72;;;;;;;;;;5072429;28;20183;-78
2022/08/28 00:24:56;;;;;;;5.43;2.97;;;;;;;;;;5075293;28;20184;-78
2022/08/28 00:30:07;;;;;;;3.97;2.60;;;;;;;;;;5075629;28;20250;-78
2022/08/28 00:32:34;;;;;;;6.97;3.00;;;;;;;;;;5074915;28;20666;-78
2022/08/28 00:35:01;;;;;;;4.68;2.90;;;;;;;;;;5075476;28;20180;-78
2022/08/28 00:37:27;;;;;;;5.00;2.85;;;;;;;;;;5058372;28;20181;-78
2022/08/28 00:39:53;;;;;;;3.47;2.75;;;;;;;;;;5074726;28;20358;-78
2022/08/28 00:42:20;;;;;;;3.42;2.60;;;;;;;;;;5076052;28;20181;-78
2022/08/28 00:44:46;;;;;;;5.72;2.85;;;;;;;;;;5076031;28;20194;-78
2022/08/28 00:47:13;;;;;;;7.07;2.90;;;;;;;;;;5074967;28;20219;-78
2022/08/28 00:49:45;;;;;;;6.25;3.13;;;;;;;;;;5074742;28;20188;-78
2022/08/28 00:52:14;;;;;;;5.07;3.50;;;;;;;;;;5074999;28;20173;-78
2022/08/28 00:54:48;;;;;;;3.57;2.83;;;;;;;;;;5074699;28;20581;-78
2022/08/28 00:57:16;;;;;;;3.05;2.65;;;;;;;;;;5074792;28;20263;-78
2022/08/28 00:59:42;;;;;;;3.67;3.07;;;;;;;;;;5074524;28;20667;-78
2022/08/28 01:02:08;;;;;;;4.47;3.00;;;;;;;;;;5057834;28;20651;-78
2022/08/28 01:04:35;;;;;;;5.25;3.10;;;;;;;;;;5074396;28;20169;-78
2022/08/28 01:07:04;;;;;;;8.43;4.00;;;;;;;;;;5074233;28;20177;-79
2022/08/28 01:09:31;;;;;;;4.22;3.15;;;;;;;;;;5057826;28;20181;-78
2022/08/28 01:12:02;;;;;;;5.10;3.22;;;;;;;;;;5057638;28;20291;-78
2022/08/28 01:14:29;;;;;;;4.60;3.13;;;;;;;;;;5074077;28;20188;-78
2022/08/28 01:16:56;;;;;;;5.03;3.20;;;;;;;;;;5057517;28;20177;-78
2022/08/28 01:19:34;;;;;;;3.38;2.92;;;;;;;;;;5073894;28;20177;-78
2022/08/28 01:22:06;;;;;;;4.50;3.28;;;;;;;;;;5057307;28;20232;-78
2022/08/28 01:24:32;;;;;;;4.88;2.88;;;;;;;;;;5074097;28;20177;-78
2022/08/28 01:26:58;;;;;;;5.72;2.90;;;;;;;;;;5075126;28;20173;-78
2022/08/28 01:29:26;;;;;;;4.78;2.83;;;;;;;;;;5057312;28;20705;-78
2022/08/28 01:31:52;;;;;;;6.28;3.15;;;;;;;;;;5074108;28;20193;-77
2022/08/28 01:34:18;;;;;;;5.57;2.80;;;;;;;;;;5056760;28;20256;-78
2022/08/28 01:36:47;;;;;;;4.45;3.17;;;;;;;;;;5057688;28;20222;-78
2022/08/28 01:39:14;;;;;;;4.90;3.05;;;;;;;;;;5057971;28;20188;-78
2022/08/28 01:41:41;;;;;;;4.18;3.08;;;;;;;;;;5057339;28;20200;-78
2022/08/28 01:44:08;;;;;;;4.30;3.13;;;;;;;;;;5057554;28;20226;-78
2022/08/28 01:46:34;;;;;;;3.60;2.77;;;;;;;;;;5073909;28;20256;-78
2022/08/28 01:49:00;;;;;;;6.73;3.10;;;;;;;;;;5073335;28;20173;-78
2022/08/28 01:51:26;;;;;;;5.63;2.90;;;;;;;;;;5073882;28;20291;-78
2022/08/28 01:53:52;;;;;;;6.22;3.00;;;;;;;;;;5073869;28;20220;-78
2022/08/28 01:56:18;;;;;;;4.55;3.10;;;;;;;;;;5056858;28;20184;-78
2022/08/28 01:58:46;;;;;;;5.67;3.07;;;;;;;;;;5074479;28;20256;-78
2022/08/28 02:01:14;;;;;;;3.65;2.97;;;;;;;;;;5074730;28;20201;-78
2022/08/28 02:03:41;;;;;;;4.70;3.25;;;;;;;;;;5059741;28;20187;-78
2022/08/28 02:06:08;;;;;;;4.87;2.90;;;;;;;;;;5073245;28;20173;-78
2022/08/28 02:08:35;;;;;;;6.15;3.05;;;;;;;;;;5073123;28;20208;-78
2022/08/28 02:11:01;;;;;;;6.27;3.00;;;;;;;;;;5073253;28;20220;-78
2022/08/28 02:13:27;;;;;;;6.43;3.03;;;;;;;;;;5073032;28;20181;-78
2022/08/28 02:15:53;;;;;;;4.82;2.80;;;;;;;;;;5056568;28;20205;-78
2022/08/28 02:18:19;;;;;;;4.20;2.87;;;;;;;;;;5076733;28;20609;-78
2022/08/28 02:20:45;;;;;;;5.35;2.75;;;;;;;;;;5056152;28;20316;-77
2022/08/28 02:23:12;;;;;;;5.37;3.00;;;;;;;;;;5056278;28;20271;-78
2022/08/28 02:25:38;;;;;;;6.70;3.05;;;;;;;;;;5056486;28;20192;-78
2022/08/28 02:28:04;;;;;;;4.77;2.77;;;;;;;;;;5073056;28;20181;-78
2022/08/28 02:30:31;;;;;;;4.82;2.83;;;;;;;;;;5074049;28;20197;-76
2022/08/28 02:32:57;;;;;;;5.00;2.70;;;;;;;;;;5072746;28;20169;-76
2022/08/28 02:35:23;;;;;;;5.00;2.87;;;;;;;;;;5056383;28;20181;-75
2022/08/28 02:38:05;;;;;;;5.63;3.00;;;;;;;;;;5072226;28;20264;-76
2022/08/28 02:40:31;;;;;;;5.13;2.80;;;;;;;;;;5072453;28;20262;-75
2022/08/28 02:42:57;;;;;;;7.53;2.93;;;;;;;;;;5072593;28;20181;-76
2022/08/28 02:45:23;;;;;;;5.45;2.78;;;;;;;;;;5055788;28;20655;-76
2022/08/28 02:47:51;;;;;;;4.22;3.00;;;;;;;;;;5055010;28;20185;-75
2022/08/28 02:50:18;;;;;;;4.43;2.80;;;;;;;;;;5072648;28;20207;-75
2022/08/28 02:52:45;;;;;;;8.55;3.13;;;;;;;;;;5072344;28;20177;-75
2022/08/28 02:55:12;;;;;;;3.70;2.70;;;;;;;;;;5072328;28;20184;-76
2022/08/28 02:57:38;;;;;;;5.17;2.90;;;;;;;;;;5072284;28;20183;-75
2022/08/28 03:00:06;;;;;;;8.07;3.20;;;;;;;;;;5082717;28;20207;-75
2022/08/28 03:02:31;;;;;;;4.50;2.80;;;;;;;;;;5114340;28;20186;-75
2022/08/28 03:04:59;;;;;;;4.37;2.87;;;;;;;;;;5095862;28;20554;-75
2022/08/28 03:07:25;;;;;;;7.10;3.07;;;;;;;;;;5096171;28;20180;-76
2022/08/28 03:09:51;;;;;;;7.20;2.53;;;;;;;;;;5112690;28;20199;-75
2022/08/28 03:12:22;;;;;;;5.33;3.07;;;;;;;;;;5095817;28;20203;-76
2022/08/28 03:14:48;;;;;;;5.87;2.90;;;;;;;;;;5113863;28;20209;-76
2022/08/28 03:17:14;;;;;;;6.33;2.70;;;;;;;;;;5112287;28;20183;-76
2022/08/28 03:19:40;;;;;;;5.13;2.90;;;;;;;;;;5095447;28;20302;-75
2022/08/28 03:22:06;;;;;;;4.93;2.70;;;;;;;;;;5095719;28;20207;-76
2022/08/28 03:24:32;;;;;;;4.80;2.80;;;;;;;;;;5113978;28;20186;-75
2022/08/28 03:27:00;;;;;;;4.22;2.70;;;;;;;;;;5112279;28;20172;-76
2022/08/28 03:29:26;;;;;;;5.07;2.80;;;;;;;;;;5095889;28;20200;-75
2022/08/28 03:31:52;;;;;;;4.67;2.80;;;;;;;;;;5112166;28;20191;-75
2022/08/28 03:34:18;;;;;;;5.57;2.90;;;;;;;;;;5095740;28;20183;-75
2022/08/28 03:36:44;;;;;;;4.80;2.90;;;;;;;;;;5095281;28;20314;-75
2022/08/28 03:39:10;;;;;;;6.90;3.47;;;;;;;;;;5112358;28;20180;-76
2022/08/28 03:41:36;;;;;;;4.07;2.70;;;;;;;;;;5095459;28;20216;-75
2022/08/28 03:44:03;;;;;;;7.33;2.90;;;;;;;;;;5095349;28;20176;-76
2022/08/28 03:46:31;;;;;;;3.80;2.77;;;;;;;;;;5112184;28;20175;-76
2022/08/28 03:48:58;;;;;;;8.37;3.03;;;;;;;;;;5113065;28;20164;-75
2022/08/28 03:51:25;;;;;;;5.67;2.90;;;;;;;;;;5112188;28;20195;-75
2022/08/28 03:53:51;;;;;;;5.53;2.97;;;;;;;;;;5112006;28;20175;-76
2022/08/28 03:56:20;;;;;;;4.97;2.80;;;;;;;;;;5095091;28;20176;-75
2022/08/28 03:58:47;;;;;;;4.60;3.00;;;;;;;;;;5112651;28;20542;-75
2022/08/28 04:01:13;;;;;;;10.13;3.00;;;;;;;;;;5094793;28;20222;-76
2022/08/28 04:03:39;;;;;;;5.43;2.90;;;;;;;;;;5094861;28;20172;-75
2022/08/28 04:06:05;;;;;;;3.23;2.60;;;;;;;;;;5111919;28;20536;-75
2022/08/28 04:08:31;;;;;;;4.67;2.80;;;;;;;;;;5111779;28;20205;-75
2022/08/28 04:10:59;;;;;;;4.70;2.70;;;;;;;;;;5111679;28;20282;-75
2022/08/28 04:13:26;;;;;;;5.57;3.00;;;;;;;;;;5112986;28;20638;-75
2022/08/28 04:15:59;;;;;;;3.80;2.63;;;;;;;;;;5111995;28;20183;-75
2022/08/28 04:18:25;;;;;;;5.63;2.80;;;;;;;;;;5092124;28;20267;-76
2022/08/28 04:21:02;;;;;;;9.83;3.20;;;;;;;;;;5070551;28;20247;-75
2022/08/28 04:23:28;;;;;;;4.37;2.80;;;;;;;;;;5088336;28;20165;-75
2022/08/28 04:25:54;;;;;;;6.20;2.93;;;;;;;;;;5072355;28;20259;-75
2022/08/28 04:28:21;;;;;;;4.77;2.67;;;;;;;;;;5070994;28;20181;-75
2022/08/28 04:30:49;;;;;;;6.63;2.90;;;;;;;;;;5088080;28;20200;-75
2022/08/28 04:33:15;;;;;;;3.97;2.87;;;;;;;;;;5087886;28;20700;-75
2022/08/28 04:35:41;;;;;;;4.20;2.93;;;;;;;;;;5087842;28;20204;-75
2022/08/28 04:38:07;;;;;;;5.43;3.00;;;;;;;;;;5087955;28;20635;-75
2022/08/28 04:40:33;;;;;;;6.67;3.30;;;;;;;;;;5070995;28;20579;-75
2022/08/28 04:42:59;;;;;;;8.43;3.17;;;;;;;;;;5087882;28;20177;-75
2022/08/28 04:45:25;;;;;;;4.82;2.88;;;;;;;;;;5088096;28;20181;-75
2022/08/28 04:47:51;;;;;;;6.60;2.70;;;;;;;;;;5070729;28;20272;-75
2022/08/28 04:50:17;;;;;;;4.20;2.70;;;;;;;;;;5070820;28;20201;-75
2022/08/28 04:52:43;;;;;;;2.93;2.60;;;;;;;;;;5070968;28;20208;-75
2022/08/28 04:55:09;;;;;;;4.53;2.90;;;;;;;;;;5072086;28;20262;-75
2022/08/28 04:57:35;;;;;;;5.50;2.63;;;;;;;;;;5071859;28;20183;-75
2022/08/28 05:00:01;;;;;;;4.70;2.90;;;;;;;;;;5070879;28;20209;-75
2022/08/28 05:02:27;;;;;;;4.90;2.80;;;;;;;;;;5072306;28;20173;-74
2022/08/28 05:04:53;;;;;;;5.63;2.83;;;;;;;;;;5087636;28;20234;-74
2022/08/28 05:07:19;;;;;;;4.83;2.50;;;;;;;;;;5087638;28;20187;-74
2022/08/28 05:09:45;;;;;;;3.55;2.40;;;;;;;;;;5089004;28;20187;-73
2022/08/28 05:12:16;;;;;;;4.40;2.47;;;;;;;;;;5074425;28;20247;-74
2022/08/28 05:14:41;;;;;;;4.70;2.78;;;;;;;;;;5074438;28;20164;-73
2022/08/28 05:17:08;;;;;;;4.07;2.90;;;;;;;;;;5074283;28;20185;-74
2022/08/28 05:19:34;;;;;;;4.65;2.78;;;;;;;;;;5091339;28;20181;-73
2022/08/28 05:22:00;;;;;;;3.80;2.42;;;;;;;;;;5135510;22;20241;-73
2022/08/28 05:24:26;;;;;;;4.82;2.28;;;;;;;;;;5097501;28;20194;-73
2022/08/28 05:26:52;;;;;;;3.60;2.13;;;;;;;;;;5080838;28;20172;-72
2022/08/28 05:29:18;;;;;;;5.88;2.38;;;;;;;;;;5079328;28;20179;-73
2022/08/28 05:31:44;;;;;;;3.40;2.10;;;;;;;;;;5076250;28;20200;-73
2022/08/28 05:34:10;;;;;;;4.47;2.25;;;;;;;;;;5076913;28;20261;-74
2022/08/28 05:36:37;;;;;;;8.77;2.80;;;;;;;;;;5077833;28;20173;-73
2022/08/28 05:39:04;;;;;;;7.95;2.40;;;;;;;;;;5076723;28;20177;-72
2022/08/28 05:41:31;;;;;;;4.07;2.33;;;;;;;;;;5076598;28;20214;-73
2022/08/28 05:44:02;;;;;;;4.10;2.08;;;;;;;;;;5094856;28;20170;-73
2022/08/28 05:46:28;;;;;;;5.27;2.10;;;;;;;;;;5076736;28;20176;-73
2022/08/28 05:48:55;;;;;;;4.70;2.20;;;;;;;;;;5093373;28;20168;-73
2022/08/28 05:51:22;;;;;;;8.77;2.27;;;;;;;;;;5093429;28;20332;-73
2022/08/28 05:53:48;;;;;;;3.93;2.27;;;;;;;;;;5076433;28;20169;-73
2022/08/28 05:56:16;;;;;;;5.53;2.23;;;;;;;;;;5076604;28;20181;-73
2022/08/28 05:58:42;;;;;;;4.70;2.30;;;;;;;;;;5076167;28;20180;-73
2022/08/28 06:01:16;;;;;;;4.45;2.33;;;;;;;;;;5076301;28;20682;-73
2022/08/28 06:03:43;;;;;;;3.83;1.90;;;;;;;;;;5076248;28;20172;-74
2022/08/28 06:06:10;;;;;;;4.25;2.22;;;;;;;;;;5077199;28;20272;-74
2022/08/28 06:08:36;;;;;;;8.77;2.60;;;;;;;;;;5077442;28;20282;-75
2022/08/28 06:11:04;;;;;;;7.43;2.40;;;;;;;;;;5078121;28;20206;-73
2022/08/28 06:13:30;;;;;;;3.10;1.83;;;;;;;;;;5079078;28;20188;-74
2022/08/28 06:15:56;;;;;;;6.60;2.00;;;;;;;;;;5078831;28;20180;-72
2022/08/28 06:18:23;;;;;;;5.73;2.00;;;;;;;;;;5078851;28;20673;-72
2022/08/28 06:20:49;;;;;;;4.60;2.00;;;;;;;;;;5069076;28;20216;-73
2022/08/28 06:23:16;;;;;;;6.60;2.30;;;;;;;;;;5092653;28;20674;-73
2022/08/28 06:25:45;;;;;;;3.97;2.30;;;;;;;;;;5092907;28;20166;-73
2022/08/28 06:28:12;;;;;;;5.20;2.10;;;;;;;;;;5059403;28;20169;-73
2022/08/28 06:30:38;;;;;;;9.00;2.27;;;;;;;;;;5057280;28;20193;-76
2022/08/28 06:33:05;;;;;;;7.33;2.40;;;;;;;;;;5057449;28;20181;-74
2022/08/28 06:35:32;;;;;;;4.53;2.43;;;;;;;;;;5059309;28;20204;-74
2022/08/28 06:37:58;;;;;;;9.90;5.13;;;;;;;;;;5081302;28;20265;-76
2022/08/28 06:40:24;;;;;;;24.97;11.53;;;;;;;;;;5076683;28;20200;-73
2022/08/28 06:42:50;;;;;;;16.43;7.93;;;;;;;;;;5075997;28;20181;-74
2022/08/28 06:45:16;;;;;;;7.73;2.30;;;;;;;;;;5059159;28;20280;-76
2022/08/28 06:47:42;;;;;;;11.30;4.30;;;;;;;;;;5059592;28;20172;-76
2022/08/28 06:50:08;;;;;;;4.53;2.47;;;;;;;;;;5093741;28;20183;-77
2022/08/28 06:52:34;;;;;;;8.93;3.35;;;;;;;;;;5059170;28;20650;-77
2022/08/28 06:55:01;;;;;;;3.57;2.10;;;;;;;;;;5075651;28;20187;-77
2022/08/28 06:57:27;;;;;;;4.28;2.50;;;;;;;;;;5075913;28;20211;-77
2022/08/28 06:59:56;;;;;;;4.85;2.40;;;;;;;;;;5059050;28;20228;-77
2022/08/28 07:02:22;;;;;;;6.20;2.63;;;;;;;;;;5059265;28;20193;-77
2022/08/28 07:04:52;;;;;;;10.57;2.90;;;;;;;;;;5059040;28;20199;-76
2022/08/28 07:07:18;;;;;;;6.30;2.38;;;;;;;;;;5075663;28;20638;-76
2022/08/28 07:09:44;;;;;;;2.88;2.08;;;;;;;;;;5075770;28;20176;-77
2022/08/28 07:12:13;;;;;;;5.22;2.40;;;;;;;;;;5075709;28;20196;-77
2022/08/28 07:14:39;;;;;;;6.85;2.33;;;;;;;;;;5059016;28;20653;-76
2022/08/28 07:17:06;;;;;;;3.83;1.92;;;;;;;;;;5058903;28;20198;-76
2022/08/28 07:19:32;;;;;;;4.43;2.13;;;;;;;;;;5058927;28;20180;-76
2022/08/28 07:21:58;;;;;;;5.57;2.10;;;;;;;;;;5092558;28;20677;-76
2022/08/28 07:24:24;;;;;;;7.50;2.47;;;;;;;;;;5058923;28;20172;-77
2022/08/28 07:26:50;;;;;;;5.05;2.38;;;;;;;;;;5058807;28;20187;-77
2022/08/28 07:29:17;;;;;;;4.05;2.17;;;;;;;;;;5075458;28;20168;-76
2022/08/28 07:31:44;;;;;;;4.32;2.10;;;;;;;;;;5091981;28;20192;-76
2022/08/28 07:34:11;;;;;;;5.93;2.20;;;;;;;;;;5047744;28;20250;-76
2022/08/28 07:36:37;;;;;;;3.50;2.15;;;;;;;;;;5054959;28;20176;-76
2022/08/28 07:39:04;;;;;;;5.43;2.25;;;;;;;;;;5038563;28;20714;-76
2022/08/28 07:41:32;;;;;;;5.93;2.10;;;;;;;;;;5072637;28;20204;-76
2022/08/28 07:46:43;;;;;;;3.10;2.10;;;;;;;;;;5057979;28;20259;-76
2022/08/28 07:49:09;;;;;;;5.55;2.65;;;;;;;;;;5055051;28;20172;-76
2022/08/28 07:51:35;;;;;;;6.10;2.72;;;;;;;;;;5054659;28;20790;-76
2022/08/28 07:54:02;;;;;;;5.65;2.60;;;;;;;;;;5038455;28;20275;-77
2022/08/28 07:56:29;;;;;;;4.85;2.70;;;;;;;;;;5054652;28;20169;-77
2022/08/28 07:58:58;;;;;;;5.30;2.75;;;;;;;;;;5054773;28;20229;-76
2022/08/28 08:01:25;;;;;;;6.75;2.58;;;;;;;;;;5038172;28;20631;-76
2022/08/28 08:03:51;;;;;;;3.47;2.30;;;;;;;;;;5054594;28;20212;-77
2022/08/28 08:06:17;;;;;;;3.20;2.10;;;;;;;;;;5054578;28;20177;-76
2022/08/28 08:08:44;;;;;;;5.35;2.42;;;;;;;;;;5054341;28;20184;-77
2022/08/28 08:11:13;;;;;;;5.38;2.10;;;;;;;;;;5054870;28;20217;-77
2022/08/28 08:13:39;;;;;;;5.70;2.38;;;;;;;;;;5054762;28;20183;-77
2022/08/28 08:16:13;;;;;;;5.63;2.20;;;;;;;;;;5054697;28;20181;-76
2022/08/28 08:18:40;;;;;;;6.35;2.22;;;;;;;;;;5054514;28;20173;-77
2022/08/28 08:21:08;;;;;;;4.50;2.35;;;;;;;;;;5054492;28;20208;-77
2022/08/28 08:23:34;;;;;;;7.15;2.50;;;;;;;;;;5054593;28;20256;-76
2022/08/28 08:26:02;;;;;;;4.57;2.30;;;;;;;;;;5054670;28;20172;-75
2022/08/28 08:28:28;;;;;;;6.13;2.42;;;;;;;;;;5054467;28;20169;-76
2022/08/28 08:31:07;;;;;;;4.78;2.42;;;;;;;;;;5054272;28;20193;-75
2022/08/28 08:33:33;;;;;;;6.32;2.25;;;;;;;;;;5054518;28;20177;-75
2022/08/28 08:35:59;;;;;;;4.82;2.30;;;;;;;;;;5054559;28;20645;-76
2022/08/28 08:39:00;;;;;;;6.63;2.75;;;;;;;;;;5037272;28;20268;-76
2022/08/28 08:41:46;;;;;;;5.50;2.70;;;;;;;;;;5054178;28;20215;-75
2022/08/28 08:44:31;;;;;;;4.38;2.47;;;;;;;;;;5072896;28;20167;-76
2022/08/28 08:47:12;;;;;;;6.22;2.60;;;;;;;;;;5075834;28;20169;-76
2022/08/28 08:49:39;;;;;;;4.95;2.42;;;;;;;;;;5075927;28;20226;-76
2022/08/28 08:52:17;;;;;;;6.45;2.30;;;;;;;;;;5057967;28;20188;-76
2022/08/28 08:54:46;;;;;;;3.95;2.60;;;;;;;;;;5075840;28;20168;-76
2022/08/28 08:57:13;;;;;;;5.75;2.90;;;;;;;;;;5041438;28;20196;-76
2022/08/28 08:59:40;;;;;;;4.60;2.38;;;;;;;;;;5041224;28;20254;-76
2022/08/28 09:02:21;;;;;;;4.22;2.50;;;;;;;;;;5041366;28;20199;-75
2022/08/28 09:04:53;;;;;;;4.38;2.53;;;;;;;;;;5058003;28;20173;-75
2022/08/28 09:07:20;;;;;;;6.22;3.13;;;;;;;;;;5041270;28;20227;-76
2022/08/28 09:09:48;;;;;;;4.57;2.50;;;;;;;;;;5057653;28;20211;-76
2022/08/28 09:12:19;;;;;;;4.93;2.70;;;;;;;;;;5057516;28;20195;-75
2022/08/28 09:14:57;;;;;;;5.22;2.58;;;;;;;;;;5057937;28;20157;-76
2022/08/28 09:17:26;;;;;;;5.10;2.45;;;;;;;;;;5041172;28;20176;-76
2022/08/28 09:19:52;;;;;;;7.75;2.88;;;;;;;;;;5057774;28;20193;-76
2022/08/28 09:22:18;;;;;;;5.70;2.60;;;;;;;;;;5040874;28;20223;-76
2022/08/28 09:24:44;;;;;;;4.50;2.60;;;;;;;;;;5057589;28;20173;-77
2022/08/28 09:27:24;;;;;;;5.03;2.55;;;;;;;;;;5057457;28;20662;-78
2022/08/28 09:29:56;;;;;;;4.43;2.72;;;;;;;;;;5086126;28;20176;-78
2022/08/28 09:32:24;;;;;;;7.50;2.88;;;;;;;;;;5077750;28;20250;-78
2022/08/28 09:35:09;;;;;;;5.63;2.80;;;;;;;;;;5077387;28;20176;-78
2022/08/28 09:37:36;;;;;;;4.97;2.78;;;;;;;;;;5077161;28;20278;-78
2022/08/28 09:40:21;;;;;;;6.15;2.60;;;;;;;;;;5095867;28;20665;-78
2022/08/28 09:43:25;;;;;;;4.65;2.53;;;;;;;;;;5077170;28;20308;-78
2022/08/28 09:46:14;;;;;;;5.30;3.05;;;;;;;;;;5077453;28;20172;-76
2022/08/28 09:48:42;;;;;;;9.70;3.50;;;;;;;;;;5093033;28;20176;-75
2022/08/28 09:51:20;;;;;;;30.05;9.75;;;;;;;;;;5077158;28;20196;-75
2022/08/28 09:53:53;;;;;;;5.32;2.60;;;;;;;;;;5076929;28;20574;-77
2022/08/28 09:56:24;;;;;;;27.23;10.75;;;;;;;;;;5076338;28;20264;-75
2022/08/28 09:58:55;;;;;;;5.45;3.00;;;;;;;;;;5093785;28;20176;-75
2022/08/28 10:01:39;;;;;;;4.38;2.40;;;;;;;;;;5076622;28;20215;-75
2022/08/28 10:04:21;;;;;;;5.38;2.95;;;;;;;;;;5076958;28;20596;-76
2022/08/28 10:06:55;;;;;;;5.45;2.17;;;;;;;;;;5094747;28;20157;-77
2022/08/28 10:09:24;;;;;;;6.20;2.67;;;;;;;;;;5076912;28;20180;-76
2022/08/28 10:11:56;;;;;;;3.80;2.53;;;;;;;;;;5076791;28;20224;-76
2022/08/28 10:14:34;;;;;;;5.05;2.53;;;;;;;;;;5076803;28;20234;-77
2022/08/28 10:17:12;;;;;;;5.03;2.72;;;;;;;;;;5076302;28;20176;-76
2022/08/28 10:19:38;;;;;;;4.75;2.47;;;;;;;;;;5076609;28;20255;-76
2022/08/28 10:22:17;;;;;;;5.22;2.53;;;;;;;;;;5076402;28;20295;-77
2022/08/28 10:24:46;;;;;;;4.38;2.38;;;;;;;;;;5076613;28;20528;-77
2022/08/28 10:27:32;;;;;;;7.10;3.10;;;;;;;;;;5076314;28;20312;-77
2022/08/28 10:30:03;;;;;;;4.32;2.42;;;;;;;;;;5075878;28;20606;-77
2022/08/28 10:32:35;;;;;;;4.68;2.50;;;;;;;;;;5076040;28;20192;-76
2022/08/28 10:35:20;;;;;;;5.60;2.28;;;;;;;;;;5076126;28;20182;-76
2022/08/28 10:37:52;;;;;;;5.63;2.42;;;;;;;;;;5076068;28;20253;-76
2022/08/28 10:40:24;;;;;;;6.90;2.58;;;;;;;;;;5076058;28;20670;-76
2022/08/28 10:43:01;;;;;;;5.00;2.63;;;;;;;;;;5075944;28;20228;-77
2022/08/28 10:45:29;;;;;;;4.68;2.15;;;;;;;;;;5075759;28;20164;-76
2022/08/28 10:47:57;;;;;;;6.70;2.70;;;;;;;;;;5075646;28;20641;-76
2022/08/28 10:50:28;;;;;;;5.93;2.53;;;;;;;;;;5075865;28;20654;-76
2022/08/28 10:52:57;;;;;;;6.20;2.85;;;;;;;;;;5075900;28;20711;-76
2022/08/28 10:55:26;;;;;;;4.85;2.40;;;;;;;;;;5075737;28;20179;-76
2022/08/28 10:57:52;;;;;;;6.45;2.53;;;;;;;;;;5075687;28;20183;-76
2022/08/28 11:00:21;;;;;;;5.78;2.60;;;;;;;;;;5075820;28;20312;-76
2022/08/28 11:02:49;;;;;;;5.60;2.40;;;;;;;;;;5075915;28;20179;-76
2022/08/28 11:05:20;;;;;;;4.15;2.60;;;;;;;;;;5075729;28;20164;-76
2022/08/28 11:07:51;;;;;;;4.68;2.40;;;;;;;;;;5074730;28;20171;-76
2022/08/28 11:10:43;;;;;;;6.45;2.80;;;;;;;;;;5075523;28;20214;-76
2022/08/28 11:13:10;;;;;;;5.35;2.50;;;;;;;;;;5093618;28;20148;-74
2022/08/28 11:15:36;;;;;;;4.07;2.45;;;;;;;;;;5075600;28;20518;-74
2022/08/28 11:18:08;;;;;;;3.95;2.35;;;;;;;;;;5093165;28;20704;-74
2022/08/28 11:23:07;;;;;;;4.78;2.30;;;;;;;;;;5090461;28;20767;-74
2022/08/28 11:25:41;;;;;;;3.95;2.60;;;;;;;;;;5093566;28;20183;-73
2022/08/28 11:28:13;;;;;;;5.25;2.58;;;;;;;;;;5093712;28;20165;-73
2022/08/28 11:30:39;;;;;;;5.15;2.35;;;;;;;;;;5093473;28;20171;-73
2022/08/28 11:33:07;;;;;;;5.55;2.70;;;;;;;;;;5075355;28;20194;-73
2022/08/28 11:35:41;;;;;;;4.82;2.70;;;;;;;;;;5092440;28;20172;-73
2022/08/28 11:38:09;;;;;;;6.55;2.58;;;;;;;;;;5074823;28;20199;-76
2022/08/28 11:40:37;;;;;;;4.68;2.50;;;;;;;;;;5091437;28;20278;-74
2022/08/28 11:43:19;;;;;;;5.40;2.65;;;;;;;;;;5091642;28;20164;-77
2022/08/28 11:46:05;;;;;;;5.07;2.65;;;;;;;;;;5091718;28;20168;-77
2022/08/28 11:48:34;;;;;;;4.32;2.63;;;;;;;;;;5091781;28;20199;-75
2022/08/28 11:51:09;;;;;;;3.85;2.60;;;;;;;;;;5091648;28;20188;-76
2022/08/28 11:53:34;;;;;;;5.20;2.63;;;;;;;;;;5091547;28;20178;-75
2022/08/28 11:56:00;;;;;;;4.57;2.70;;;;;;;;;;5091569;28;20172;-76
2022/08/28 11:58:35;;;;;;;4.70;2.65;;;;;;;;;;5091027;28;20312;-76
2022/08/28 12:01:04;;;;;;;4.30;2.60;;;;;;;;;;5091368;28;20574;-76
2022/08/28 12:03:37;;;;;;;4.07;2.85;;;;;;;;;;5092667;28;20165;-76
2022/08/28 12:06:03;;;;;;;6.40;2.50;;;;;;;;;;5091541;28;20249;-76
2022/08/28 12:08:46;;;;;;;6.00;2.95;;;;;;;;;;5091405;28;20172;-76
2022/08/28 12:11:31;;;;;;;4.75;2.85;;;;;;;;;;5090916;28;20188;-76
2022/08/28 12:13:57;;;;;;;5.30;2.67;;;;;;;;;;5091363;28;20243;-76
2022/08/28 12:16:23;;;;;;;7.30;3.10;;;;;;;;;;5091073;28;20221;-76
2022/08/28 12:18:49;;;;;;;5.93;2.90;;;;;;;;;;5092412;28;20179;-76
2022/08/28 12:21:17;;;;;;;4.90;2.95;;;;;;;;;;5095229;28;20299;-76
2022/08/28 12:24:09;;;;;;;7.03;3.25;;;;;;;;;;5097001;28;20177;-76
2022/08/28 12:26:38;;;;;;;4.05;2.85;;;;;;;;;;5072182;28;20191;-75
2022/08/28 12:29:10;;;;;;;4.10;2.72;;;;;;;;;;5095337;28;20172;-77
2022/08/28 12:34:40;;;;;;;5.85;3.17;;;;;;;;;;5096551;28;20259;-76
2022/08/28 12:37:20;;;;;;;4.75;2.88;;;;;;;;;;5094959;28;20605;-76
2022/08/28 12:39:46;;;;;;;4.68;3.00;;;;;;;;;;5095195;28;20168;-76
2022/08/28 12:42:17;;;;;;;5.72;3.08;;;;;;;;;;5095204;28;20198;-76
2022/08/28 12:44:43;;;;;;;6.43;3.20;;;;;;;;;;5095024;28;20512;-77
2022/08/28 12:47:13;;;;;;;5.03;3.38;;;;;;;;;;5094660;28;20176;-76
2022/08/28 12:49:39;;;;;;;6.32;3.15;;;;;;;;;;5095159;28;20216;-76
2022/08/28 12:52:07;;;;;;;6.03;3.10;;;;;;;;;;5078226;28;20207;-76
2022/08/28 12:54:34;;;;;;;6.15;3.05;;;;;;;;;;5094655;28;20245;-76
2022/08/28 12:57:03;;;;;;;4.05;2.85;;;;;;;;;;5077280;28;20184;-76
2022/08/28 12:59:34;;;;;;;5.70;2.95;;;;;;;;;;5093715;28;20194;-76
2022/08/28 13:02:02;;;;;;;6.25;3.05;;;;;;;;;;5077529;28;20219;-77
2022/08/28 13:04:33;;;;;;;5.63;3.60;;;;;;;;;;5094660;28;20541;-77
2022/08/28 13:07:10;;;;;;;5.38;3.10;;;;;;;;;;5089043;28;20707;-76
2022/08/28 13:09:36;;;;;;;5.25;3.17;;;;;;;;;;5093513;28;20215;-76
2022/08/28 13:12:03;;;;;;;5.93;2.88;;;;;;;;;;5094599;28;20666;-75
2022/08/28 13:14:40;;;;;;;5.78;3.28;;;;;;;;;;5094727;28;20172;-76
2022/08/28 13:17:07;;;;;;;4.15;2.90;;;;;;;;;;5092925;28;20168;-74
2022/08/28 13:19:33;;;;;;;5.38;3.08;;;;;;;;;;5094198;28;20175;-76
2022/08/28 13:22:01;;;;;;;4.88;2.90;;;;;;;;;;5095840;28;20208;-76
2022/08/28 13:24:30;;;;;;;4.93;3.08;;;;;;;;;;5094510;28;20208;-76
2022/08/28 13:27:02;;;;;;;5.43;3.10;;;;;;;;;;5094541;28;20168;-76
2022/08/28 13:29:29;;;;;;;4.32;3.03;;;;;;;;;;5094169;28;20203;-77
2022/08/28 13:31:59;;;;;;;5.85;3.25;;;;;;;;;;5093530;28;20222;-76
2022/08/28 13:34:27;;;;;;;5.68;3.17;;;;;;;;;;5095618;28;20237;-76
2022/08/28 13:36:58;;;;;;;3.50;2.80;;;;;;;;;;5077567;28;20180;-77
2022/08/28 13:39:25;;;;;;;4.97;3.00;;;;;;;;;;5095465;28;20172;-77
2022/08/28 13:41:53;;;;;;;6.50;3.42;;;;;;;;;;5093972;28;20208;-77
2022/08/28 13:44:36;;;;;;;5.65;2.92;;;;;;;;;;5094992;28;20179;-75
2022/08/28 13:47:05;;;;;;;7.43;3.10;;;;;;;;;;5093498;28;20168;-77
2022/08/28 13:49:31;;;;;;;6.70;3.25;;;;;;;;;;5094012;28;20180;-76
2022/08/28 13:51:58;;;;;;;4.65;3.10;;;;;;;;;;5093864;28;20192;-76
2022/08/28 13:54:24;;;;;;;3.97;2.92;;;;;;;;;;5093725;28;20168;-77
2022/08/28 13:56:50;;;;;;;4.40;2.78;;;;;;;;;;5094644;28;20217;-76
2022/08/28 13:59:17;;;;;;;3.75;2.63;;;;;;;;;;5094598;28;20594;-77
2022/08/28 14:04:29;;;;;;;7.80;2.92;;;;;;;;;;5094838;28;20179;-76
2022/08/28 14:06:55;;;;;;;6.78;2.88;;;;;;;;;;5094518;28;20168;-77
2022/08/28 14:09:21;;;;;;;5.63;2.70;;;;;;;;;;5094480;28;20184;-76
2022/08/28 14:11:48;;;;;;;4.53;2.55;;;;;;;;;;5076700;28;20193;-77
2022/08/28 14:14:14;;;;;;;4.38;2.70;;;;;;;;;;5094524;28;20171;-76
2022/08/28 14:16:40;;;;;;;5.38;2.38;;;;;;;;;;5092974;28;20274;-76
2022/08/28 14:19:06;;;;;;;5.53;2.60;;;;;;;;;;5076264;28;20177;-76
2022/08/28 14:21:33;;;;;;;4.22;2.67;;;;;;;;;;5092866;28;20212;-77
2022/08/28 14:23:59;;;;;;;4.25;2.70;;;;;;;;;;5092352;28;20168;-77
2022/08/28 14:26:26;;;;;;;4.25;2.20;;;;;;;;;;5072272;28;20181;-77
2022/08/28 14:28:52;;;;;;;4.32;2.72;;;;;;;;;;5076050;28;20237;-77
2022/08/28 14:31:18;;;;;;;4.88;2.60;;;;;;;;;;5076115;28;20205;-77
2022/08/28 14:33:44;;;;;;;4.93;2.60;;;;;;;;;;5093162;28;20168;-77
2022/08/28 14:36:17;;;;;;;4.25;2.53;;;;;;;;;;5093286;28;20180;-77
2022/08/28 14:41:50;;;;;;;5.65;2.15;;;;;;;;;;5094100;28;20211;-77
2022/08/28 14:44:16;;;;;;;4.07;2.30;;;;;;;;;;5093211;28;20186;-77
2022/08/28 14:46:43;;;;;;;3.65;1.80;;;;;;;;;;5093306;28;20175;-77
2022/08/28 14:49:10;;;;;;;4.22;2.30;;;;;;;;;;5076366;28;20187;-77
2022/08/28 14:51:37;;;;;;;3.03;1.95;;;;;;;;;;5092870;28;20207;-77
2022/08/28 14:54:04;;;;;;;3.80;2.10;;;;;;;;;;5093207;28;20642;-77
2022/08/28 14:56:31;;;;;;;5.55;2.10;;;;;;;;;;5093121;28;20176;-77
2022/08/28 14:58:58;;;;;;;3.08;2.10;;;;;;;;;;5075764;28;20187;-77
2022/08/28 15:01:25;;;;;;;3.70;2.10;;;;;;;;;;5092977;28;20212;-77
2022/08/28 15:03:51;;;;;;;3.75;2.30;;;;;;;;;;5092971;28;20175;-77
2022/08/28 15:06:18;;;;;;;2.47;2.13;;;;;;;;;;5093089;28;20179;-77
2022/08/28 15:08:45;;;;;;;3.30;2.20;;;;;;;;;;5092589;28;20176;-77